createdAt,value
2019-04-22T00:00:04.712Z,10.70
2019-04-22T00:02:49.036Z,10.78
2019-04-22T00:05:36.504Z,10.63
2019-04-22T00:08:18.134Z,10.96
2019-04-22T00:11:01.419Z,10.76
2019-04-22T00:13:32.238Z,10.82
2019-04-22T00:15:59.328Z,10.74
2019-04-22T00:18:42.889Z,10.66
2019-04-22T00:21:12.751Z,10.48
2019-04-22T00:23:49.702Z,10.37
2019-04-22T00:26:26.075Z,10.29
2019-04-22T00:29:03.677Z,10.29
2019-04-22T00:31:49.536Z,10.16
2019-04-22T00:34:16.645Z,9.96
2019-04-22T00:36:55.577Z,9.86
2019-04-22T00:39:37.151Z,9.91
2019-04-22T00:42:03.265Z,10.02
2019-04-22T00:44:39.917Z,9.91
2019-04-22T00:47:17.701Z,9.75
2019-04-22T00:52:16.723Z,9.83
2019-04-22T00:54:55.160Z,9.73
2019-04-22T00:57:21.645Z,9.72
2019-04-22T00:59:57.256Z,9.79
2019-04-22T01:02:38.986Z,9.97
2019-04-22T01:05:10.449Z,9.97
2019-04-22T01:07:38.330Z,9.94
2019-04-22T01:10:11.671Z,9.87
2019-04-22T01:12:46.731Z,9.77
2019-04-22T01:15:23.746Z,9.71
2019-04-22T01:17:52.553Z,9.79
2019-04-22T01:20:45.679Z,9.74
2019-04-22T01:22:58.949Z,9.75
2019-04-22T01:25:34.884Z,9.87
2019-04-22T01:27:58.428Z,9.74
2019-04-22T01:30:26.460Z,9.62
2019-04-22T01:32:54.210Z,9.55
2019-04-22T01:35:35.853Z,9.60
2019-04-22T01:38:13.386Z,9.58
2019-04-22T01:41:04.549Z,9.61
2019-04-22T01:43:35.029Z,9.39
2019-04-22T01:46:12.683Z,9.51
2019-04-22T01:48:44.465Z,9.45
2019-04-22T01:51:07.630Z,9.48
2019-04-22T01:53:56.574Z,9.37
2019-04-22T01:56:20.580Z,9.23
2019-04-22T01:58:50.424Z,9.23
2019-04-22T02:01:30.759Z,9.40
2019-04-22T02:04:08.866Z,9.39
2019-04-22T02:06:44.423Z,9.15
2019-04-22T02:09:17.741Z,8.99
2019-04-22T02:11:54.973Z,9.19
2019-04-22T02:14:31.590Z,9.15
2019-04-22T02:17:02.331Z,8.86
2019-04-22T02:19:37.687Z,8.64
2019-04-22T02:22:11.607Z,8.56
2019-04-22T02:24:46.724Z,8.84
2019-04-22T02:27:17.761Z,8.80
2019-04-22T02:29:50.356Z,8.74
2019-04-22T02:32:39.238Z,8.69
2019-04-22T02:35:05.130Z,8.59
2019-04-22T02:38:04.968Z,8.52
2019-04-22T02:40:14.548Z,8.55
2019-04-22T02:42:51.832Z,8.59
2019-04-22T02:45:26.592Z,8.44
2019-04-22T02:47:58.542Z,8.36
2019-04-22T02:50:28.559Z,8.16
2019-04-22T02:53:01.930Z,8.07
2019-04-22T02:55:40.910Z,8.14
2019-04-22T02:58:21.844Z,8.22
2019-04-22T03:03:31.277Z,8.05
2019-04-22T03:06:07.555Z,7.98
2019-04-22T03:08:30.156Z,7.91
2019-04-22T03:11:19.147Z,7.81
2019-04-22T03:16:17.496Z,7.79
2019-04-22T03:26:27.413Z,7.60
2019-04-22T03:39:45.482Z,7.46
2019-04-22T03:44:49.634Z,7.70
2019-04-22T03:47:26.059Z,7.67
2019-04-22T03:49:58.936Z,7.57
2019-04-22T03:52:20.701Z,7.54
2019-04-22T03:57:40.589Z,7.60
2019-04-22T04:05:10.472Z,7.64
2019-04-22T04:07:48.458Z,7.63
2019-04-22T04:20:37.247Z,7.60
2019-04-22T04:25:42.498Z,7.56
2019-04-22T04:28:47.236Z,7.61
2019-04-22T04:30:42.911Z,7.59
2019-04-22T04:38:34.129Z,7.69
2019-04-22T04:40:58.561Z,7.72
2019-04-22T04:43:59.797Z,7.73
2019-04-22T04:53:41.780Z,7.84
2019-04-22T05:01:35.181Z,7.86
2019-04-22T05:09:15.076Z,8.13
2019-04-22T05:16:47.948Z,8.41
2019-04-22T05:19:22.569Z,8.45
2019-04-22T05:21:53.385Z,8.46
2019-04-22T05:24:22.721Z,8.57
2019-04-22T05:26:57.060Z,8.54
2019-04-22T05:32:04.315Z,8.56
2019-04-22T05:34:34.622Z,8.56
2019-04-22T05:37:10.831Z,8.62
2019-04-22T05:39:38.089Z,8.66
2019-04-22T05:42:16.338Z,8.70
2019-04-22T05:44:49.608Z,8.72
2019-04-22T05:47:22.493Z,8.77
2019-04-22T05:49:47.873Z,8.86
2019-04-22T05:52:25.221Z,8.88
2019-04-22T05:55:02.473Z,9.00
2019-04-22T05:57:33.035Z,9.04
2019-04-22T06:00:06.385Z,9.19
2019-04-22T06:05:32.035Z,9.35
2019-04-22T06:07:49.071Z,9.50
2019-04-22T06:10:34.446Z,9.52
2019-04-22T06:12:56.319Z,9.66
2019-04-22T06:15:36.124Z,9.73
2019-04-22T06:18:18.857Z,9.72
2019-04-22T06:21:00.544Z,9.76
2019-04-22T06:26:09.764Z,9.99
2019-04-22T06:31:10.711Z,10.17
2019-04-22T06:33:41.586Z,10.27
2019-04-22T06:36:15.839Z,10.39
2019-04-22T06:39:00.982Z,10.43
2019-04-22T06:41:24.836Z,10.47
2019-04-22T06:43:58.629Z,10.59
2019-04-22T06:46:27.193Z,10.63
2019-04-22T06:49:03.625Z,10.62
2019-04-22T06:51:33.078Z,10.69
2019-04-22T06:54:07.272Z,10.80
2019-04-22T06:56:43.118Z,10.86
2019-04-22T06:59:14.328Z,10.98
2019-04-22T07:01:55.138Z,10.89
2019-04-22T07:04:17.131Z,11.00
2019-04-22T07:06:56.827Z,11.05
2019-04-22T07:11:59.708Z,11.21
2019-04-22T07:14:35.125Z,11.21
2019-04-22T07:17:10.217Z,11.30
2019-04-22T07:19:45.009Z,11.34
2019-04-22T07:22:18.143Z,11.56
2019-04-22T07:27:22.152Z,11.59
2019-04-22T07:30:01.926Z,11.59
2019-04-22T07:32:53.533Z,11.51
2019-04-22T07:35:08.342Z,11.53
2019-04-22T07:40:09.517Z,11.66
2019-04-22T07:42:45.145Z,11.78
2019-04-22T07:45:20.284Z,11.83
2019-04-22T07:47:58.936Z,12.04
2019-04-22T07:50:39.311Z,12.08
2019-04-22T07:52:58.884Z,12.16
2019-04-22T07:55:32.610Z,12.08
2019-04-22T07:58:11.899Z,12.12
2019-04-22T08:00:50.567Z,12.34
2019-04-22T08:03:24.509Z,12.52
2019-04-22T08:05:58.555Z,12.61
2019-04-22T08:10:57.953Z,12.85
2019-04-22T08:13:31.504Z,12.93
2019-04-22T08:16:02.787Z,13.01
2019-04-22T08:18:39.157Z,13.21
2019-04-22T08:21:12.275Z,13.36
2019-04-22T08:23:44.729Z,13.30
2019-04-22T08:26:16.761Z,13.48
2019-04-22T08:28:55.819Z,13.43
2019-04-22T08:31:20.441Z,13.54
2019-04-22T08:33:54.553Z,13.49
2019-04-22T08:36:56.965Z,13.58
2019-04-22T08:39:00.855Z,13.65
2019-04-22T08:44:07.659Z,13.67
2019-04-22T08:49:28.729Z,13.70
2019-04-22T08:52:01.438Z,13.76
2019-04-22T08:54:34.108Z,13.82
2019-04-22T08:59:37.189Z,13.87
2019-04-22T09:02:20.502Z,13.92
2019-04-22T09:04:49.451Z,14.06
2019-04-22T09:07:28.368Z,14.22
2019-04-22T09:09:56.927Z,14.20
2019-04-22T09:12:46.954Z,14.17
2019-04-22T09:15:08.602Z,14.36
2019-04-22T09:17:40.286Z,14.27
2019-04-22T09:20:13.083Z,14.37
2019-04-22T09:22:47.080Z,14.34
2019-04-22T09:25:44.081Z,14.48
2019-04-22T09:28:17.561Z,14.49
2019-04-22T09:30:55.619Z,14.58
2019-04-22T09:33:20.631Z,14.64
2019-04-22T09:41:00.695Z,14.44
2019-04-22T09:43:45.467Z,14.45
2019-04-22T09:46:08.990Z,14.29
2019-04-22T09:48:43.565Z,14.42
2019-04-22T09:51:13.499Z,14.46
2019-04-22T09:53:54.757Z,14.57
2019-04-22T09:56:26.061Z,14.58
2019-04-22T09:58:55.616Z,14.60
2019-04-22T10:01:34.091Z,14.69
2019-04-22T10:04:18.203Z,14.60
2019-04-22T10:06:39.447Z,14.60
2019-04-22T10:09:45.181Z,14.76
2019-04-22T10:11:47.691Z,14.85
2019-04-22T10:14:19.114Z,14.72
2019-04-22T10:16:53.816Z,14.61
2019-04-22T10:19:30.024Z,14.62
2019-04-22T10:24:36.907Z,14.97
2019-04-22T10:27:05.986Z,14.74
2019-04-22T10:29:47.382Z,14.83
2019-04-22T10:32:11.296Z,14.97
2019-04-22T10:34:38.800Z,15.15
2019-04-22T10:37:06.403Z,15.01
2019-04-22T10:39:45.851Z,14.96
2019-04-22T10:42:11.360Z,14.82
2019-04-22T10:44:44.777Z,15.00
2019-04-22T10:47:18.077Z,15.14
2019-04-22T10:49:49.678Z,15.27
2019-04-22T10:52:21.696Z,15.47
2019-04-22T10:54:54.005Z,15.22
2019-04-22T10:57:27.583Z,15.51
2019-04-22T11:00:00.708Z,15.41
2019-04-22T11:02:35.125Z,15.54
2019-04-22T11:05:10.240Z,15.61
2019-04-22T11:07:51.420Z,15.63
2019-04-22T11:10:35.386Z,15.49
2019-04-22T11:12:54.689Z,15.44
2019-04-22T11:15:28.574Z,15.37
2019-04-22T11:18:03.440Z,15.57
2019-04-22T11:20:39.880Z,15.57
2019-04-22T11:23:11.651Z,15.79
2019-04-22T11:25:43.916Z,15.89
2019-04-22T11:28:15.981Z,15.85
2019-04-22T11:30:48.236Z,15.87
2019-04-22T11:33:20.627Z,15.91
2019-04-22T11:35:52.170Z,16.05
2019-04-22T11:38:31.301Z,16.13
2019-04-22T11:41:05.302Z,15.94
2019-04-22T11:43:38.859Z,15.89
2019-04-22T11:46:13.345Z,16.00
2019-04-22T11:48:49.943Z,16.07
2019-04-22T11:51:24.357Z,16.01
2019-04-22T11:53:58.681Z,16.12
2019-04-22T11:56:31.303Z,16.25
2019-04-22T11:59:04.892Z,16.15
2019-04-22T12:01:37.194Z,16.04
2019-04-22T12:04:09.701Z,15.72
2019-04-22T12:06:41.942Z,15.93
2019-04-22T12:09:15.469Z,15.90
2019-04-22T12:11:47.571Z,16.00
2019-04-22T12:14:20.429Z,15.93
2019-04-22T12:16:55.323Z,15.96
2019-04-22T12:19:29.458Z,15.94
2019-04-22T12:22:02.904Z,16.06
2019-04-22T12:25:10.554Z,15.97
2019-04-22T12:27:22.846Z,15.96
2019-04-22T12:29:56.613Z,15.88
2019-04-22T12:32:29.702Z,15.72
2019-04-22T12:35:01.833Z,15.81
2019-04-22T12:37:43.577Z,15.86
2019-04-22T12:40:30.147Z,16.00
2019-04-22T12:43:04.652Z,16.04
2019-04-22T12:45:42.510Z,16.15
2019-04-22T12:48:17.186Z,16.05
2019-04-22T12:50:58.721Z,15.90
2019-04-22T12:53:30.001Z,15.68
2019-04-22T12:56:05.054Z,15.80
2019-04-22T12:58:41.221Z,15.96
2019-04-22T13:01:14.934Z,15.82
2019-04-22T13:03:50.144Z,15.91
2019-04-22T13:06:23.632Z,16.03
2019-04-22T13:08:56.574Z,16.15
2019-04-22T13:11:40.735Z,16.14
2019-04-22T13:14:14.944Z,15.83
2019-04-22T13:16:47.260Z,16.00
2019-04-22T13:19:21.089Z,15.83
2019-04-22T13:21:54.606Z,15.99
2019-04-22T13:24:34.052Z,16.10
2019-04-22T13:27:06.758Z,16.18
2019-04-22T13:29:41.210Z,16.31
2019-04-22T13:32:13.900Z,16.08
2019-04-22T13:34:51.905Z,15.97
2019-04-22T13:37:20.966Z,15.97
2019-04-22T13:39:52.896Z,15.99
2019-04-22T13:42:27.550Z,15.91
2019-04-22T13:45:00.234Z,15.81
2019-04-22T13:47:49.129Z,15.95
2019-04-22T13:50:48.166Z,15.96
2019-04-22T13:53:24.515Z,16.09
2019-04-22T13:58:05.830Z,15.94
2019-04-22T14:00:26.917Z,16.00
2019-04-22T14:03:29.008Z,16.14
2019-04-22T14:06:02.675Z,16.11
2019-04-22T14:08:35.333Z,16.15
2019-04-22T14:11:18.042Z,16.12
2019-04-22T14:13:41.965Z,15.99
2019-04-22T14:16:15.136Z,16.13
2019-04-22T14:18:47.753Z,16.09
2019-04-22T14:21:21.065Z,15.99
2019-04-22T14:23:53.373Z,16.02
2019-04-22T14:26:25.174Z,15.95
2019-04-22T14:29:00.199Z,15.95
2019-04-22T14:31:32.873Z,15.98
2019-04-22T14:34:15.224Z,16.03
2019-04-22T14:36:51.205Z,16.16
2019-04-22T14:39:26.028Z,16.24
2019-04-22T14:42:15.771Z,16.26
2019-04-22T14:47:25.744Z,16.25
2019-04-22T14:49:59.003Z,16.16
2019-04-22T14:52:33.195Z,16.13
2019-04-22T14:54:54.308Z,16.28
2019-04-22T14:57:19.251Z,16.20
2019-04-22T14:59:50.580Z,16.22
2019-04-22T15:02:43.816Z,16.15
2019-04-22T15:05:06.054Z,16.00
2019-04-22T15:07:41.287Z,16.04
2019-04-22T15:10:18.163Z,16.04
2019-04-22T15:13:00.376Z,16.18
2019-04-22T15:16:14.003Z,16.05
2019-04-22T15:19:43.696Z,16.26
2019-04-22T15:22:15.109Z,16.29
2019-04-22T15:24:47.776Z,16.30
2019-04-22T15:27:20.332Z,16.17
2019-04-22T15:29:53.761Z,16.38
2019-04-22T15:32:25.401Z,16.89
2019-04-22T15:34:59.468Z,17.10
2019-04-22T15:37:31.140Z,16.69
2019-04-22T15:40:04.918Z,16.72
2019-04-22T15:42:41.126Z,16.45
2019-04-22T15:45:13.708Z,16.27
2019-04-22T15:48:14.720Z,16.26
2019-04-22T15:50:48.876Z,16.47
2019-04-22T15:53:22.083Z,16.51
2019-04-22T15:55:54.664Z,16.57
2019-04-22T15:58:30.174Z,16.64
2019-04-22T16:01:12.967Z,16.88
2019-04-22T16:03:40.806Z,16.86
2019-04-22T16:06:13.303Z,16.77
2019-04-22T16:08:47.889Z,16.71
2019-04-22T16:11:22.297Z,16.42
2019-04-22T16:13:54.734Z,16.17
2019-04-22T16:16:30.342Z,16.22
2019-04-22T16:19:04.458Z,16.31
2019-04-22T16:21:42.417Z,16.31
2019-04-22T16:24:36.084Z,16.37
2019-04-22T16:27:16.214Z,16.36
2019-04-22T16:29:51.977Z,16.14
2019-04-22T16:32:25.499Z,16.11
2019-04-22T16:34:57.083Z,16.22
2019-04-22T16:37:28.635Z,16.31
2019-04-22T16:40:00.926Z,16.15
2019-04-22T16:42:41.016Z,16.13
2019-04-22T16:45:07.791Z,16.09
2019-04-22T16:47:39.667Z,16.18
2019-04-22T16:50:11.272Z,16.09
2019-04-22T16:52:43.950Z,16.17
2019-04-22T16:55:16.935Z,16.16
2019-04-22T16:57:49.046Z,16.22
2019-04-22T17:00:20.673Z,16.23
2019-04-22T17:03:20.851Z,16.25
2019-04-22T17:06:17.376Z,16.30
2019-04-22T17:08:50.905Z,16.42
2019-04-22T17:11:23.035Z,16.24
2019-04-22T17:13:55.154Z,16.26
2019-04-22T17:16:30.599Z,16.26
2019-04-22T17:19:06.139Z,16.26
2019-04-22T17:21:39.632Z,16.15
2019-04-22T17:24:13.998Z,16.08
2019-04-22T17:26:46.462Z,16.04
2019-04-22T17:29:18.796Z,15.92
2019-04-22T17:32:01.679Z,15.81
2019-04-22T17:37:46.867Z,15.66
2019-04-22T17:38:26.269Z,15.69
2019-04-22T17:41:01.004Z,15.51
2019-04-22T17:43:51.822Z,15.38
2019-04-22T17:46:40.372Z,15.32
2019-04-22T17:49:54.068Z,15.24
2019-04-22T17:53:03.146Z,15.09
2019-04-22T17:55:31.633Z,15.22
2019-04-22T17:58:07.940Z,15.10
2019-04-22T18:00:32.275Z,14.93
2019-04-22T18:03:03.236Z,14.71
2019-04-22T18:05:34.644Z,14.59
2019-04-22T18:08:17.011Z,14.75
2019-04-22T18:10:49.209Z,14.51
2019-04-22T18:13:33.477Z,14.72
2019-04-22T18:16:04.134Z,14.60
2019-04-22T18:18:37.406Z,14.63
2019-04-22T18:21:02.152Z,14.51
2019-04-22T18:23:54.007Z,14.42
2019-04-22T18:26:35.982Z,14.54
2019-04-22T18:29:11.265Z,14.31
2019-04-22T18:31:35.584Z,14.14
2019-04-22T18:34:09.794Z,14.09
2019-04-22T18:36:45.665Z,14.15
2019-04-22T18:39:29.916Z,14.12
2019-04-22T18:42:04.810Z,14.11
2019-04-22T18:44:39.981Z,13.81
2019-04-22T18:47:14.616Z,13.81
2019-04-22T18:49:55.468Z,13.85
2019-04-22T18:52:58.580Z,13.80
2019-04-22T18:55:33.624Z,13.64
2019-04-22T18:58:11.680Z,13.59
2019-04-22T19:00:34.295Z,13.60
2019-04-22T19:03:15.596Z,13.71
2019-04-22T19:06:03.523Z,13.66
2019-04-22T19:08:36.645Z,13.60
2019-04-22T19:11:12.569Z,13.69
2019-04-22T19:16:30.866Z,13.35
2019-04-22T19:19:21.238Z,13.16
2019-04-22T19:21:35.521Z,13.15
2019-04-22T19:24:06.077Z,13.27
2019-04-22T19:26:50.520Z,13.06
2019-04-22T19:29:22.007Z,13.16
2019-04-22T19:31:51.192Z,13.06
2019-04-22T19:34:20.899Z,12.85
2019-04-22T19:36:58.064Z,12.66
2019-04-22T19:39:31.017Z,12.63
2019-04-22T19:42:16.994Z,12.65
2019-04-22T19:44:46.347Z,12.55
2019-04-22T19:49:57.999Z,12.53
2019-04-22T19:52:28.730Z,12.36
2019-04-22T19:55:03.304Z,12.40
2019-04-22T19:57:34.212Z,12.39
2019-04-22T20:00:05.120Z,12.49
2019-04-22T20:03:18.554Z,12.42
2019-04-22T20:06:01.375Z,12.39
2019-04-22T20:08:31.659Z,12.23
2019-04-22T20:11:13.184Z,12.14
2019-04-22T20:13:46.351Z,12.07
2019-04-22T20:16:03.518Z,11.98
2019-04-22T20:18:52.348Z,11.91
2019-04-22T20:21:22.644Z,12.23
2019-04-22T20:23:45.397Z,11.99
2019-04-22T20:26:17.855Z,12.29
2019-04-22T20:28:58.980Z,12.10
2019-04-22T20:31:33.954Z,12.51
2019-04-22T20:34:09.118Z,12.49
2019-04-22T20:39:07.842Z,12.40
2019-04-22T20:41:41.090Z,12.29
2019-04-22T20:44:22.682Z,12.29
2019-04-22T20:46:49.120Z,11.95
2019-04-22T20:49:33.770Z,12.11
2019-04-22T20:54:39.030Z,12.09
2019-04-22T20:57:01.809Z,12.32
2019-04-22T20:59:42.904Z,12.30
2019-04-22T21:02:07.988Z,12.27
2019-04-22T21:04:38.204Z,12.26
2019-04-22T21:07:14.052Z,12.23
2019-04-22T21:09:49.236Z,12.06
2019-04-22T21:12:21.156Z,11.84
2019-04-22T21:15:10.556Z,11.75
2019-04-22T21:17:37.664Z,11.72
2019-04-22T21:20:13.979Z,11.61
2019-04-22T21:22:42.045Z,11.47
2019-04-22T21:25:11.621Z,11.51
2019-04-22T21:27:51.041Z,11.69
2019-04-22T21:30:19.498Z,11.65
2019-04-22T21:32:56.300Z,11.81
2019-04-22T21:35:40.492Z,11.54
2019-04-22T21:38:04.541Z,11.64
2019-04-22T21:40:34.246Z,11.59
2019-04-22T21:43:12.727Z,11.33
2019-04-22T21:45:37.667Z,11.24
2019-04-22T21:48:28.073Z,11.32
2019-04-22T21:50:57.464Z,11.59
2019-04-22T21:53:31.490Z,11.71
2019-04-22T21:56:11.688Z,11.47
2019-04-22T21:58:53.255Z,11.76
2019-04-22T22:01:49.795Z,11.48
2019-04-22T22:04:15.279Z,11.47
2019-04-22T22:06:39.668Z,11.32
2019-04-22T22:09:22.425Z,11.15
2019-04-22T22:11:52.865Z,11.25
2019-04-22T22:14:22.410Z,11.08
2019-04-22T22:16:53.380Z,10.95
2019-04-22T22:19:35.957Z,10.99
2019-04-22T22:22:25.158Z,11.36
2019-04-22T22:24:46.433Z,11.26
2019-04-22T22:27:14.507Z,11.08
2019-04-22T22:29:57.097Z,11.03
2019-04-22T22:32:26.078Z,11.41
2019-04-22T22:34:57.287Z,11.40
2019-04-22T22:37:17.013Z,11.30
2019-04-22T22:39:51.323Z,11.48
2019-04-22T22:42:22.430Z,11.76
2019-04-22T22:44:54.557Z,11.72
2019-04-22T22:47:42.254Z,11.72
2019-04-22T22:50:15.920Z,11.62
2019-04-22T22:55:22.004Z,11.68
2019-04-22T22:57:58.239Z,11.90
2019-04-22T23:00:24.372Z,11.92
2019-04-22T23:03:36.821Z,12.00
2019-04-22T23:05:45.574Z,11.97
2019-04-22T23:08:17.500Z,11.94
2019-04-22T23:10:55.598Z,11.66
2019-04-22T23:13:25.842Z,11.98
2019-04-22T23:15:44.313Z,11.78
2019-04-22T23:18:05.995Z,11.89
2019-04-22T23:20:43.289Z,11.64
2019-04-22T23:23:36.002Z,11.89
2019-04-22T23:26:19.241Z,11.76
2019-04-22T23:28:55.638Z,12.05
2019-04-22T23:31:44.142Z,11.92
2019-04-22T23:34:26.496Z,11.79
2019-04-22T23:37:21.780Z,11.50
2019-04-22T23:40:13.116Z,11.38
2019-04-22T23:42:36.587Z,11.58
2019-04-22T23:45:10.811Z,11.43
2019-04-22T23:47:35.559Z,11.31
2019-04-22T23:50:21.196Z,11.50
2019-04-22T23:52:59.447Z,11.64
2019-04-22T23:55:33.818Z,11.64
2019-04-22T23:58:11.111Z,11.61
